Goodwin, South Dakota
Current Conditions -  °F | °C
As of 12:53 AM on Thursday 23 Oct 2014 (Local Time) from KATY Reporting Station
Clear Clear  
Wind Chill: 40°   Ceiling: Unl
Heat Index: 44°   Visibility: 7mi
Dew Point: 43°   Wind: 7mph
Humidity: 96%   Direction: 170°S
Pressure: 29.98"   Gusts: NA
Location:  44.88°N, 96.85°W
Report Text: KATY 230553Z AUTO 17006KT 7SM CLR 07/06 A2998 RMK AO2 SLP154 T00670061 10128 20067 402000067 53004
Loading
Personal Weather Stations






























Interactive Weather Map
Tropical Storm Tracking
New forecast layout! Learn more

10-Day Weather Forecast

Advertisements
Track Severe Weather on mobile